• Join FlightAware (Why Join?)
  • Login
  • US Flag 
03:38PM EDT


 

Airport Tracker/Info


-or-


 

Live Flight TrackerFlight Track Log ✈ N749SS ✈ 09-Mar-2014 ✈ KAPF - CYYZ

Flight Track Log - Related Links

Times and Time Zones

All times are in EDT time to prevent confusion due to time zone crossing. See the N749SS flight status page for this flight to view local times or setup timezone preferences in your user account.

Time Position Orientation Groundspeed Altitude Reporting Facility
EDT Latitude Longitude Course Direction KTS MPH feet Rate Location/Type
04:30PM 26.1189 -81.8958 North 260 299 7,800  Level Miami Center
04:31PM 26.1964 -81.8922 North 260 299 10,400 2,640 Climbing Miami Center
04:32PM 26.3056 -81.8714 10° North 316 364 13,100 2,700 Climbing Miami Center
04:33PM 26.4083 -81.8547 North 367 422 15,800 2,400 Climbing Miami Center
04:34PM 26.7473 -81.7500 North  Level FlightAware Approximate
04:34PM 26.5175 -81.8364 North 383 441 17,900  Level Miami Center
04:35PM 26.6353 -81.8133 10° North 407 468 18,000 180 Climbing Miami Center
04:36PM 26.7611 -81.7931 North 431 496 18,300 1,440 Climbing Miami Center
04:37PM 26.8792 -81.7631 13° North 436 502 20,900 2,460 Climbing Miami Center
04:38PM 26.9950 -81.7308 14° North 431 496 23,300 2,220 Climbing Miami Center
04:39PM 27.1025 -81.7050 12° North 431 496 25,400 1,980 Climbing Miami Center
04:40PM 27.2225 -81.6750 13° North 431 496 27,300 1,860 Climbing Miami Center
04:41PM 27.3592 -81.6433 12° North 438 504 29,200 1,680 Climbing Miami Center
04:42PM 27.4867 -81.6369 North 449 517 30,700 1,500 Climbing Miami Center
04:43PM 27.6161 -81.6306 North 459 528 32,200 1,500 Climbing Miami Center
04:44PM 27.7353 -81.6283 North 464 534 33,700 1,320 Climbing Miami Center
04:45PM 27.8794 -81.6181 North 464 534 34,900 900 Climbing Miami Center
04:46PM 28.0175 -81.6144 North 476 548 35,600 1,260 Climbing Miami Center
04:47PM 28.1511 -81.6083 North 481 554 37,500 1,680 Climbing Miami Center
04:48PM 28.2850 -81.6022 North 481 554 39,000 720 Climbing Miami Center
04:49PM 28.4164 -81.5983 North 476 548 39,000  Level Miami Center
04:50PM 28.5522 -81.5922 North 476 548 39,000  Level Miami Center
04:51PM 28.6881 -81.5861 North 481 554 39,000  Level Miami Center
04:52PM 28.8842 -81.5789 North 497 572 39,000  Level Jacksonville Center
04:53PM 29.0197 -81.5722 North 492 566 39,000  Level Jacksonville Center
04:54PM 29.1531 -81.5658 North 486 559 39,000  Level Jacksonville Center
04:55PM 29.2867 -81.5592 North 480 552 39,000  Level Jacksonville Center
04:56PM 29.4244 -81.5550 North 480 552 39,000  Level Jacksonville Center
04:57PM 29.5600 -81.5483 North 480 552 39,000  Level Jacksonville Center
04:58PM 29.6936 -81.5417 North 480 552 39,000  Level Jacksonville Center
04:59PM 29.8292 -81.5350 North 480 552 39,000  Level Jacksonville Center
05:00PM 29.9628 -81.5261 North 480 552 39,000  Level Jacksonville Center
05:01PM 30.0858 -81.5219 North 480 552 39,000  Level Jacksonville Center
05:02PM 30.2172 -81.5153 North 480 552 39,000  Level Jacksonville Center
05:03PM 30.3508 -81.5108 North 475 547 39,000  Level Jacksonville Center
05:04PM 30.4844 -81.4969 North 475 547 39,000  Level Jacksonville Center
05:05PM 30.6117 -81.4903 North 470 541 39,000  Level Jacksonville Center
05:06PM 30.7431 -81.4786 North 470 541 39,000  Level Jacksonville Center
05:07PM 30.8725 -81.4694 North 465 535 39,000  Level Jacksonville Center
05:08PM 31.0039 -81.4578 North 465 535 39,000  Level Jacksonville Center
05:09PM 31.1353 -81.4483 North 465 535 39,000  Level Jacksonville Center
05:10PM 31.2667 -81.4367 North 465 535 39,000  Level Jacksonville Center
05:11PM 31.4125 -81.3978 13° North 470 541 39,000  Level Jacksonville Center
05:12PM 31.5331 -81.3642 13° North 481 554 39,000  Level Jacksonville Center
05:13PM 31.6786 -81.3253 13° North 487 560 39,000  Level Jacksonville Center
05:14PM 31.7953 -81.2939 13° North 481 554 39,000  Level Jacksonville Center
05:15PM 31.9408 -81.2547 13° North 481 554 39,000  Level Jacksonville Center
05:16PM 32.0742 -81.2181 13° North 486 559 39,000  Level Jacksonville Center
05:17PM 32.2031 -81.1936 North 473 544 39,000  Level Jacksonville Center
05:18PM 32.3325 -81.1839 North 460 529 39,000  Level Jacksonville Center
05:19PM 32.4450 -81.1792 North 460 529 39,000  Level Jacksonville Center
05:20PM 32.5847 -81.1667 North 458 527 39,000  Level Jacksonville Center
05:21PM 32.7100 -81.1544 North 458 527 39,000  Level Jacksonville Center
05:22PM 32.8331 -81.1447 North 453 521 39,000  Level Jacksonville Center
05:23PM 32.9539 -81.1350 North 443 510 39,000  Level Jacksonville Center
05:24PM 33.0789 -81.1250 North 443 510 39,000  Level Jacksonville Center
05:25PM 33.2061 -81.1125 North 443 510 39,000  Level Jacksonville Center
05:26PM 33.3333 -81.1025 North 443 510 39,000  Level Jacksonville Center
05:27PM 33.4583 -81.0900 North 443 510 39,000  Level Jacksonville Center
05:28PM 33.5856 -81.0800 North 448 516 39,000  Level Jacksonville Center
05:29PM 33.7106 -81.0700 North 448 516 39,000  Level Jacksonville Center
05:30PM 33.8333 -81.0550 North 448 516 39,000  Level Jacksonville Center
05:33PM 34.2119 -81.0169 North 444 511 39,000  Level Atlanta Center
05:34PM 34.3328 -81.0050 North 444 511 39,000  Level Atlanta Center
05:35PM 34.4558 -81.0006 North 438 504 39,000  Level Atlanta Center
05:36PM 34.5806 -80.9836 North 431 496 39,000  Level Atlanta Center
05:37PM 34.7033 -80.9714 North 437 503 39,000  Level Atlanta Center
05:38PM 34.8181 -80.9622 North 442 509 39,000  Level Atlanta Center
05:39PM 34.9408 -80.9475 North 442 509 39,000  Level Atlanta Center
05:40PM 35.0614 -80.9331 North 437 503 39,000  Level Atlanta Center
05:41PM 35.1842 -80.9181 North 437 503 39,000  Level Atlanta Center
05:42PM 35.3047 -80.9033 North 442 509 39,000  Level Atlanta Center
05:43PM 35.4339 -80.8908 North 442 509 39,000  Level Atlanta Center
05:44PM 35.5586 -80.8733 North 442 509 39,000  Level Atlanta Center
05:45PM 35.6856 -80.8633 North 447 514 39,000  Level Atlanta Center
05:46PM 35.8125 -80.8506 North 447 514 39,000  Level Atlanta Center
05:47PM 35.9394 -80.8381 North 447 514 39,000  Level Atlanta Center
05:48PM 36.0642 -80.8253 North 447 514 39,000  Level Atlanta Center
05:49PM 36.1869 -80.8128 North 447 514 39,000  Level Atlanta Center
05:50PM 36.3053 -80.7978 North 441 507 39,000  Level Atlanta Center
05:51PM 36.4281 -80.7850 North 441 507 39,000  Level Atlanta Center
05:52PM 36.5528 -80.7722 North 441 507 39,000  Level Atlanta Center
05:53PM 36.6733 -80.7569 North 441 507 39,000  Level Atlanta Center
05:54PM 36.8067 -80.7461 North 434 499 39,000  Level Atlanta Center
05:56PM 37.0247 -80.7222 North 434 499 39,000  Level Washington Center
05:57PM 37.1528 -80.6994 North 444 511 39,000  Level Washington Center
05:58PM 37.2758 -80.6556 16° North 450 518 39,000  Level Washington Center
05:59PM 37.3858 -80.6183 15° North 459 528 39,000  Level Washington Center
06:00PM 37.5106 -80.5769 15° North 459 528 39,000  Level Washington Center
06:01PM 37.6356 -80.5353 15° North 459 528 39,000  Level Washington Center
06:02PM 37.7581 -80.4933 15° North 459 528 39,000  Level Washington Center
06:03PM 37.8828 -80.4514 15° North 459 528 39,000  Level Washington Center
06:04PM 38.0183 -80.4022 16° North 459 528 39,000  Level Washington Center
06:05PM 38.1408 -80.3628 14° North 459 528 39,000  Level Washington Center
06:06PM 38.2636 -80.3203 15° North 459 528 39,000  Level Washington Center
06:07PM 38.3861 -80.2803 14° North 459 528 39,000  Level Washington Center
06:08PM 38.4981 -80.2422 15° North 459 528 39,000  Level Washington Center
06:10PM 38.7719 -80.1369 17° North 453 521 39,000  Level Cleveland Center
06:11PM 38.8947 -80.0922 16° North 455 524 39,000  Level Cleveland Center
06:12PM 39.0183 -80.0606 11° North 455 524 39,000  Level Cleveland Center
06:14PM 39.1431 -80.0411 North 453 521 39,000  Level Cleveland Center
06:15PM 39.2667 -80.0133 10° North 453 521 39,000  Level Cleveland Center
06:16PM 39.4133 -79.9811 10° North 451 519 39,000  Level Cleveland Center
06:17PM 39.5336 -79.9528 10° North 445 512 39,000  Level Cleveland Center
06:18PM 39.6550 -79.9264 10° North 444 511 39,000  Level Cleveland Center
06:19PM 39.7739 -79.9003 10° North 438 504 39,000  Level Cleveland Center
06:20PM 39.8928 -79.8725 10° North 437 503 39,000  Level Cleveland Center
06:21PM 40.0108 -79.8464 10° North 436 502 39,000  Level Cleveland Center
06:22PM 40.1519 -79.8150 10° North 435 501 39,000  Level Cleveland Center
06:23PM 40.2689 -79.7889 10° North 433 498 39,000  Level Cleveland Center
06:24PM 40.3853 -79.7633 North 432 497 39,000  Level Cleveland Center
06:25PM 40.5014 -79.7369 10° North 431 496 39,000  Level Cleveland Center
06:26PM 40.6417 -79.7050 10° North 430 495 39,000  Level Cleveland Center
06:27PM 40.7589 -79.6786 10° North 430 495 39,000 -660 Level Cleveland Center
06:28PM 40.8778 -79.6522 10° North 431 496 37,700 -1,380 Descending Cleveland Center
06:29PM 40.9967 -79.6244 10° North 434 499 36,200 -1,800 Descending Cleveland Center
06:30PM 41.1117 -79.5972 10° North 424 488 34,100 -1,080 Descending Cleveland Center
06:31PM 41.2497 -79.5653 10° North 420 483 34,000 -60 Descending Cleveland Center
06:32PM 41.3661 -79.5383 10° North 422 486 34,000  Level Cleveland Center
06:33PM 41.4778 -79.5133 10° North 423 487 34,000 -60 Level Cleveland Center
06:34PM 41.5933 -79.4853 10° North 423 487 33,900 -840 Descending Cleveland Center
06:35PM 41.7086 -79.4600 North 420 483 32,300 -1,860 Descending Cleveland Center
06:36PM 41.8494 -79.4269 10° North 426 490 30,100 -2,040 Descending Cleveland Center
06:37PM 41.9700 -79.3983 10° North 427 491 28,200 -1,020 Descending Cleveland Center
06:38PM 42.0819 -79.3722 10° North 424 488 28,000 -540 Descending Cleveland Center
06:39PM 42.1994 -79.3442 10° North 428 493 27,100 -1,380 Descending Cleveland Center
06:40PM 42.3192 -79.3161 10° North 439 505 25,200 -2,100 Descending Cleveland Center
06:41PM 42.4636 -79.2814 10° North 443 510 22,800 -2,160 Descending Cleveland Center
06:43PM 42.5792 -79.2817 360° North 412 474 20,800 -1,920 Descending Cleveland Center
06:44PM 42.6919 -79.2953 355° North 408 470 18,900 -1,680 Descending Cleveland Center
06:45PM 42.7889 -79.3028 357° North 340 391 17,400 -1,320 Descending Cleveland Center
06:46PM 42.8708 -79.3122 355° North 294 338 16,200 -840 Descending Cleveland Center
06:46PM 42.9167 -79.3000 11° North 280 322 16,000 -120 Descending Toronto Center
06:47PM 43.0000 -79.3167 352° North 280 322 16,000 -600 Level Toronto Center
06:48PM 43.0667 -79.2667 29° Northeast 300 345 14,900 -1,500 Descending Toronto Center
06:49PM 43.1500 -79.2167 24° Northeast 300 345 13,100 -1,500 Descending Toronto Center
06:50PM 43.2167 -79.2500 340° North 260 299 12,000 -600 Descending Toronto Center
06:51PM 43.2667 -79.3167 316° Northwest 250 288 12,000  Level Toronto Center
06:52PM 43.3333 -79.3500 340° North 250 288 12,000 -360 Level Toronto Center
06:53PM 43.4000 -79.4000 331° Northwest 250 288 11,300 -540 Descending Toronto Center
06:54PM 43.4500 -79.4500 324° Northwest 260 299 11,000 -660 Descending Toronto Center
06:55PM 43.5167 -79.5000 331° Northwest 260 299 10,000 -1,380 Descending Toronto Center
06:56PM 43.5833 -79.5167 350° North 250 288 8,300 -1,860 Descending Toronto Center
06:57PM 43.6500 -79.5167 360° North 250 288 6,300 -1,200 Descending Toronto Center
06:58PM 43.7167 -79.5167 360° North 250 288 6,000 -180 Descending Toronto Center
06:59PM 43.8000 -79.5167 360° North 250 288 6,000 -240 Level Toronto Center
07:00PM 43.8667 -79.5167 360° North 250 288 5,600 -540 Descending Toronto Center
07:01PM 43.8833 -79.4167 77° East 250 288 5,000 -300 Descending Toronto Center
07:02PM 43.8500 -79.3833 144° Southeast 200 230 5,000 -60 Level Toronto Center
07:03PM 43.8167 -79.4167 216° Southwest 150 173 4,900 -540 Descending Toronto Center
07:04PM 43.8000 -79.4500 235° Southwest 130 150 4,000 -840 Descending Toronto Center
07:05PM 43.7667 -79.5000 227° Southwest 130 150 3,300 -780 Descending Toronto Center
07:06PM 43.7500 -79.5167 216° Southwest 130 150 2,500 -840 Descending Toronto Center
07:07PM 43.7167 -79.5667 227° Southwest 130 150 1,700 -720 Descending Toronto Center
07:08PM 43.7000 -79.6167 245° Southwest 130 150 1,100 -600 Descending Toronto Center
07:09PM 43.6667 -79.6333 200° South 110 127 600 -300 Descending Toronto Center
07:10PM 43.6667 -79.6333 200° South 30 35 600  Level Toronto Center
07:11PM 43.6667 -79.6333 200° South 20 23 600  Level Toronto Center
07:12PM 43.6833 -79.6333 360° North 20 23 600  Level Toronto Center